sensor_id;sensor_type;location;lat;lon;timestamp;P1;durP1;ratioP1;P2;durP2;ratioP2
62654;SDS011;48717;55.556;37.816;2023-05-08T00:01:12;28.80;;;10.65;;
62654;SDS011;48717;55.556;37.816;2023-05-08T00:03:41;26.02;;;8.68;;
62654;SDS011;48717;55.556;37.816;2023-05-08T00:06:08;23.13;;;9.20;;
62654;SDS011;48717;55.556;37.816;2023-05-08T00:08:36;22.17;;;9.25;;
62654;SDS011;48717;55.556;37.816;2023-05-08T00:11:03;30.55;;;9.98;;
62654;SDS011;48717;55.556;37.816;2023-05-08T00:13:30;24.17;;;8.60;;
62654;SDS011;48717;55.556;37.816;2023-05-08T00:15:57;27.15;;;9.73;;
62654;SDS011;48717;55.556;37.816;2023-05-08T00:18:24;30.77;;;9.75;;
62654;SDS011;48717;55.556;37.816;2023-05-08T00:20:52;28.92;;;8.93;;
62654;SDS011;48717;55.556;37.816;2023-05-08T00:23:19;27.45;;;9.60;;
62654;SDS011;48717;55.556;37.816;2023-05-08T00:25:47;47.42;;;13.80;;
62654;SDS011;48717;55.556;37.816;2023-05-08T00:28:14;26.13;;;10.02;;
62654;SDS011;48717;55.556;37.816;2023-05-08T00:30:42;25.77;;;10.38;;
62654;SDS011;48717;55.556;37.816;2023-05-08T00:33:09;79.25;;;29.70;;
62654;SDS011;48717;55.556;37.816;2023-05-08T00:35:37;50.40;;;18.42;;
62654;SDS011;48717;55.556;37.816;2023-05-08T00:38:06;83.25;;;31.55;;
62654;SDS011;48717;55.556;37.816;2023-05-08T00:40:34;31.30;;;12.40;;
62654;SDS011;48717;55.556;37.816;2023-05-08T00:43:01;49.20;;;20.05;;
62654;SDS011;48717;55.556;37.816;2023-05-08T00:45:31;44.13;;;15.23;;
62654;SDS011;48717;55.556;37.816;2023-05-08T00:48:01;51.50;;;18.77;;
62654;SDS011;48717;55.556;37.816;2023-05-08T00:50:30;43.45;;;11.93;;
62654;SDS011;48717;55.556;37.816;2023-05-08T00:52:59;38.88;;;16.08;;
62654;SDS011;48717;55.556;37.816;2023-05-08T00:55:28;56.40;;;17.27;;
62654;SDS011;48717;55.556;37.816;2023-05-08T00:57:57;50.70;;;16.52;;
62654;SDS011;48717;55.556;37.816;2023-05-08T01:00:25;43.47;;;15.77;;
62654;SDS011;48717;55.556;37.816;2023-05-08T01:02:52;39.92;;;15.15;;
62654;SDS011;48717;55.556;37.816;2023-05-08T01:05:19;31.65;;;12.45;;
62654;SDS011;48717;55.556;37.816;2023-05-08T01:07:47;42.05;;;14.02;;
62654;SDS011;48717;55.556;37.816;2023-05-08T01:10:14;52.03;;;15.18;;
62654;SDS011;48717;55.556;37.816;2023-05-08T01:15:28;61.92;;;16.02;;
62654;SDS011;48717;55.556;37.816;2023-05-08T01:18:16;54.80;;;14.23;;
62654;SDS011;48717;55.556;37.816;2023-05-08T01:21:02;51.63;;;13.38;;
62654;SDS011;48717;55.556;37.816;2023-05-08T01:37:41;41.60;;;14.32;;
62654;SDS011;48717;55.556;37.816;2023-05-08T01:43:01;48.05;;;13.65;;
62654;SDS011;48717;55.556;37.816;2023-05-08T01:45:37;57.05;;;15.55;;
62654;SDS011;48717;55.556;37.816;2023-05-08T01:48:08;44.40;;;15.15;;
62654;SDS011;48717;55.556;37.816;2023-05-08T01:50:44;23.08;;;9.75;;
62654;SDS011;48717;55.556;37.816;2023-05-08T01:53:22;30.33;;;10.32;;
62654;SDS011;48717;55.556;37.816;2023-05-08T01:55:55;20.50;;;8.73;;
62654;SDS011;48717;55.556;37.816;2023-05-08T01:58:25;24.23;;;10.20;;
62654;SDS011;48717;55.556;37.816;2023-05-08T02:00:53;35.15;;;10.38;;
62654;SDS011;48717;55.556;37.816;2023-05-08T02:03:22;23.92;;;8.80;;
62654;SDS011;48717;55.556;37.816;2023-05-08T02:05:51;23.77;;;8.32;;
62654;SDS011;48717;55.556;37.816;2023-05-08T02:08:22;24.55;;;8.85;;
62654;SDS011;48717;55.556;37.816;2023-05-08T02:10:50;27.70;;;9.07;;
62654;SDS011;48717;55.556;37.816;2023-05-08T02:13:18;24.98;;;7.68;;
62654;SDS011;48717;55.556;37.816;2023-05-08T02:15:48;25.83;;;8.63;;
62654;SDS011;48717;55.556;37.816;2023-05-08T02:18:17;30.95;;;9.82;;
62654;SDS011;48717;55.556;37.816;2023-05-08T02:20:51;18.58;;;8.23;;
62654;SDS011;48717;55.556;37.816;2023-05-08T02:23:40;34.10;;;10.10;;
62654;SDS011;48717;55.556;37.816;2023-05-08T02:26:09;23.10;;;8.95;;
62654;SDS011;48717;55.556;37.816;2023-05-08T02:28:38;27.90;;;9.73;;
62654;SDS011;48717;55.556;37.816;2023-05-08T02:31:07;33.72;;;11.15;;
62654;SDS011;48717;55.556;37.816;2023-05-08T02:33:36;25.42;;;10.30;;
62654;SDS011;48717;55.556;37.816;2023-05-08T02:36:07;29.75;;;10.18;;
62654;SDS011;48717;55.556;37.816;2023-05-08T02:38:36;39.37;;;13.17;;
62654;SDS011;48717;55.556;37.816;2023-05-08T02:41:05;23.75;;;8.80;;
62654;SDS011;48717;55.556;37.816;2023-05-08T02:43:35;43.38;;;10.00;;
62654;SDS011;48717;55.556;37.816;2023-05-08T02:46:11;33.92;;;11.50;;
62654;SDS011;48717;55.556;37.816;2023-05-08T02:49:03;37.88;;;11.00;;
62654;SDS011;48717;55.556;37.816;2023-05-08T02:54:09;28.45;;;9.05;;
62654;SDS011;48717;55.556;37.816;2023-05-08T02:59:52;23.17;;;8.55;;
62654;SDS011;48717;55.556;37.816;2023-05-08T03:03:00;32.38;;;10.80;;
62654;SDS011;48717;55.556;37.816;2023-05-08T03:05:29;31.00;;;11.30;;
62654;SDS011;48717;55.556;37.816;2023-05-08T03:08:02;34.20;;;13.00;;
62654;SDS011;48717;55.556;37.816;2023-05-08T03:10:33;35.97;;;12.00;;
62654;SDS011;48717;55.556;37.816;2023-05-08T03:13:02;42.67;;;12.85;;
62654;SDS011;48717;55.556;37.816;2023-05-08T03:15:33;44.70;;;13.00;;
62654;SDS011;48717;55.556;37.816;2023-05-08T03:18:02;40.95;;;12.32;;
62654;SDS011;48717;55.556;37.816;2023-05-08T03:20:36;40.50;;;12.13;;
62654;SDS011;48717;55.556;37.816;2023-05-08T03:23:07;51.33;;;14.02;;
62654;SDS011;48717;55.556;37.816;2023-05-08T03:28:05;33.30;;;11.93;;
62654;SDS011;48717;55.556;37.816;2023-05-08T03:30:37;31.20;;;12.18;;
62654;SDS011;48717;55.556;37.816;2023-05-08T03:33:10;22.60;;;10.45;;
62654;SDS011;48717;55.556;37.816;2023-05-08T03:35:38;37.30;;;10.85;;
62654;SDS011;48717;55.556;37.816;2023-05-08T03:38:08;40.70;;;12.00;;
62654;SDS011;48717;55.556;37.816;2023-05-08T03:40:35;29.20;;;12.68;;
62654;SDS011;48717;55.556;37.816;2023-05-08T03:43:05;37.88;;;12.43;;
62654;SDS011;48717;55.556;37.816;2023-05-08T03:45:37;51.75;;;13.55;;
62654;SDS011;48717;55.556;37.816;2023-05-08T03:48:06;59.43;;;16.00;;
62654;SDS011;48717;55.556;37.816;2023-05-08T03:50:35;47.17;;;13.40;;
62654;SDS011;48717;55.556;37.816;2023-05-08T03:53:06;45.50;;;13.23;;
62654;SDS011;48717;55.556;37.816;2023-05-08T03:55:33;39.13;;;12.43;;
62654;SDS011;48717;55.556;37.816;2023-05-08T03:58:05;44.17;;;12.82;;
62654;SDS011;48717;55.556;37.816;2023-05-08T04:06:48;33.08;;;10.52;;
62654;SDS011;48717;55.556;37.816;2023-05-08T04:09:35;28.58;;;10.55;;
62654;SDS011;48717;55.556;37.816;2023-05-08T04:14:42;28.67;;;10.10;;
62654;SDS011;48717;55.556;37.816;2023-05-08T04:17:14;26.40;;;9.48;;
62654;SDS011;48717;55.556;37.816;2023-05-08T04:19:50;33.22;;;9.93;;
62654;SDS011;48717;55.556;37.816;2023-05-08T04:22:22;23.30;;;7.50;;
62654;SDS011;48717;55.556;37.816;2023-05-08T04:24:52;17.00;;;6.38;;
62654;SDS011;48717;55.556;37.816;2023-05-08T04:27:25;15.73;;;6.43;;
62654;SDS011;48717;55.556;37.816;2023-05-08T04:29:52;12.38;;;6.20;;
62654;SDS011;48717;55.556;37.816;2023-05-08T04:32:22;11.00;;;5.77;;
62654;SDS011;48717;55.556;37.816;2023-05-08T04:34:50;14.85;;;5.97;;
62654;SDS011;48717;55.556;37.816;2023-05-08T04:37:27;13.80;;;6.70;;
62654;SDS011;48717;55.556;37.816;2023-05-08T04:39:58;12.57;;;6.07;;
62654;SDS011;48717;55.556;37.816;2023-05-08T04:42:30;13.18;;;5.97;;
62654;SDS011;48717;55.556;37.816;2023-05-08T04:45:00;12.07;;;4.97;;
62654;SDS011;48717;55.556;37.816;2023-05-08T04:47:31;10.23;;;4.60;;
62654;SDS011;48717;55.556;37.816;2023-05-08T04:49:59;7.75;;;4.65;;
62654;SDS011;48717;55.556;37.816;2023-05-08T04:52:30;6.45;;;3.80;;
62654;SDS011;48717;55.556;37.816;2023-05-08T04:54:57;6.13;;;4.40;;
62654;SDS011;48717;55.556;37.816;2023-05-08T04:57:24;5.97;;;4.10;;
62654;SDS011;48717;55.556;37.816;2023-05-08T04:59:51;6.63;;;4.00;;
62654;SDS011;48717;55.556;37.816;2023-05-08T05:02:18;9.20;;;4.13;;
62654;SDS011;48717;55.556;37.816;2023-05-08T05:04:47;13.80;;;4.00;;
62654;SDS011;48717;55.556;37.816;2023-05-08T05:07:14;6.75;;;3.63;;
62654;SDS011;48717;55.556;37.816;2023-05-08T05:09:42;15.98;;;4.63;;
62654;SDS011;48717;55.556;37.816;2023-05-08T05:12:09;10.52;;;4.13;;
62654;SDS011;48717;55.556;37.816;2023-05-08T05:14:36;8.60;;;3.75;;
62654;SDS011;48717;55.556;37.816;2023-05-08T05:17:03;7.30;;;3.70;;
62654;SDS011;48717;55.556;37.816;2023-05-08T05:19:31;6.55;;;3.53;;
62654;SDS011;48717;55.556;37.816;2023-05-08T05:21:59;8.57;;;3.88;;
62654;SDS011;48717;55.556;37.816;2023-05-08T05:24:26;3.97;;;3.20;;
62654;SDS011;48717;55.556;37.816;2023-05-08T05:26:56;9.53;;;3.47;;
62654;SDS011;48717;55.556;37.816;2023-05-08T05:29:23;5.55;;;3.50;;
62654;SDS011;48717;55.556;37.816;2023-05-08T05:31:50;9.00;;;3.40;;
62654;SDS011;48717;55.556;37.816;2023-05-08T05:34:17;6.20;;;3.53;;
62654;SDS011;48717;55.556;37.816;2023-05-08T05:36:44;6.22;;;3.97;;
62654;SDS011;48717;55.556;37.816;2023-05-08T05:39:12;8.30;;;3.50;;
62654;SDS011;48717;55.556;37.816;2023-05-08T05:41:39;3.92;;;2.60;;
62654;SDS011;48717;55.556;37.816;2023-05-08T05:44:10;5.57;;;2.65;;
62654;SDS011;48717;55.556;37.816;2023-05-08T05:46:38;4.07;;;2.17;;
62654;SDS011;48717;55.556;37.816;2023-05-08T05:49:09;2.63;;;2.08;;
62654;SDS011;48717;55.556;37.816;2023-05-08T05:51:37;4.72;;;2.10;;
62654;SDS011;48717;55.556;37.816;2023-05-08T05:54:04;6.40;;;2.30;;
62654;SDS011;48717;55.556;37.816;2023-05-08T05:56:31;5.03;;;2.67;;
62654;SDS011;48717;55.556;37.816;2023-05-08T05:58:59;4.32;;;2.35;;
62654;SDS011;48717;55.556;37.816;2023-05-08T06:01:26;6.15;;;2.35;;
62654;SDS011;48717;55.556;37.816;2023-05-08T06:03:55;4.80;;;2.58;;
62654;SDS011;48717;55.556;37.816;2023-05-08T06:06:22;3.25;;;2.60;;
62654;SDS011;48717;55.556;37.816;2023-05-08T06:08:50;3.00;;;2.40;;
62654;SDS011;48717;55.556;37.816;2023-05-08T06:11:17;4.70;;;2.20;;
62654;SDS011;48717;55.556;37.816;2023-05-08T06:13:45;3.90;;;2.45;;
62654;SDS011;48717;55.556;37.816;2023-05-08T06:16:16;5.40;;;2.35;;
62654;SDS011;48717;55.556;37.816;2023-05-08T06:18:43;5.25;;;2.67;;
62654;SDS011;48717;55.556;37.816;2023-05-08T06:21:10;3.25;;;2.40;;
62654;SDS011;48717;55.556;37.816;2023-05-08T06:23:38;10.10;;;2.70;;
62654;SDS011;48717;55.556;37.816;2023-05-08T06:26:05;3.25;;;2.17;;
62654;SDS011;48717;55.556;37.816;2023-05-08T06:28:32;4.75;;;1.95;;
62654;SDS011;48717;55.556;37.816;2023-05-08T06:30:59;4.90;;;2.05;;
62654;SDS011;48717;55.556;37.816;2023-05-08T06:33:26;3.92;;;2.13;;
62654;SDS011;48717;55.556;37.816;2023-05-08T06:35:53;3.75;;;2.00;;
62654;SDS011;48717;55.556;37.816;2023-05-08T06:38:20;2.72;;;2.13;;
62654;SDS011;48717;55.556;37.816;2023-05-08T06:40:47;4.20;;;2.20;;
62654;SDS011;48717;55.556;37.816;2023-05-08T06:43:16;5.97;;;2.30;;
62654;SDS011;48717;55.556;37.816;2023-05-08T06:45:43;2.42;;;1.73;;
62654;SDS011;48717;55.556;37.816;2023-05-08T06:48:11;4.10;;;2.03;;
62654;SDS011;48717;55.556;37.816;2023-05-08T06:50:39;3.92;;;1.92;;
62654;SDS011;48717;55.556;37.816;2023-05-08T06:53:06;4.90;;;1.95;;
62654;SDS011;48717;55.556;37.816;2023-05-08T06:55:34;2.55;;;1.80;;
62654;SDS011;48717;55.556;37.816;2023-05-08T06:58:01;3.45;;;2.45;;
62654;SDS011;48717;55.556;37.816;2023-05-08T07:00:28;5.10;;;2.30;;
62654;SDS011;48717;55.556;37.816;2023-05-08T07:02:55;6.47;;;2.60;;
62654;SDS011;48717;55.556;37.816;2023-05-08T07:05:22;2.33;;;1.90;;
62654;SDS011;48717;55.556;37.816;2023-05-08T07:07:50;14.15;;;2.35;;
62654;SDS011;48717;55.556;37.816;2023-05-08T07:10:20;4.07;;;2.17;;
62654;SDS011;48717;55.556;37.816;2023-05-08T07:12:48;7.43;;;4.03;;
62654;SDS011;48717;55.556;37.816;2023-05-08T07:15:15;4.22;;;1.80;;
62654;SDS011;48717;55.556;37.816;2023-05-08T07:17:51;11.63;;;1.88;;
62654;SDS011;48717;55.556;37.816;2023-05-08T07:20:19;4.10;;;1.98;;
62654;SDS011;48717;55.556;37.816;2023-05-08T07:22:47;4.43;;;1.55;;
62654;SDS011;48717;55.556;37.816;2023-05-08T07:25:14;2.63;;;2.28;;
62654;SDS011;48717;55.556;37.816;2023-05-08T07:27:41;5.93;;;3.80;;
62654;SDS011;48717;55.556;37.816;2023-05-08T07:30:09;5.05;;;2.92;;
62654;SDS011;48717;55.556;37.816;2023-05-08T07:32:37;4.88;;;2.58;;
62654;SDS011;48717;55.556;37.816;2023-05-08T07:35:07;5.72;;;2.38;;
62654;SDS011;48717;55.556;37.816;2023-05-08T07:37:40;3.20;;;1.70;;
62654;SDS011;48717;55.556;37.816;2023-05-08T07:40:07;1.58;;;1.35;;
62654;SDS011;48717;55.556;37.816;2023-05-08T07:42:38;4.90;;;1.50;;
62654;SDS011;48717;55.556;37.816;2023-05-08T07:45:07;3.53;;;1.23;;
62654;SDS011;48717;55.556;37.816;2023-05-08T07:47:36;2.25;;;1.17;;
62654;SDS011;48717;55.556;37.816;2023-05-08T07:50:04;2.25;;;1.30;;
62654;SDS011;48717;55.556;37.816;2023-05-08T07:52:32;1.60;;;1.20;;
62654;SDS011;48717;55.556;37.816;2023-05-08T07:54:59;4.80;;;1.40;;
62654;SDS011;48717;55.556;37.816;2023-05-08T07:57:26;2.35;;;1.48;;
62654;SDS011;48717;55.556;37.816;2023-05-08T07:59:53;6.80;;;1.80;;
62654;SDS011;48717;55.556;37.816;2023-05-08T08:02:20;8.55;;;2.60;;
62654;SDS011;48717;55.556;37.816;2023-05-08T08:04:47;8.35;;;1.92;;
62654;SDS011;48717;55.556;37.816;2023-05-08T08:07:15;8.80;;;2.20;;
62654;SDS011;48717;55.556;37.816;2023-05-08T08:09:42;4.88;;;1.30;;
62654;SDS011;48717;55.556;37.816;2023-05-08T08:12:09;3.58;;;1.63;;
62654;SDS011;48717;55.556;37.816;2023-05-08T08:14:37;3.25;;;1.35;;
62654;SDS011;48717;55.556;37.816;2023-05-08T08:17:04;1.98;;;1.30;;
62654;SDS011;48717;55.556;37.816;2023-05-08T08:19:31;4.05;;;1.50;;
62654;SDS011;48717;55.556;37.816;2023-05-08T08:21:58;2.70;;;1.38;;
62654;SDS011;48717;55.556;37.816;2023-05-08T08:24:25;2.92;;;1.40;;
62654;SDS011;48717;55.556;37.816;2023-05-08T08:26:54;3.88;;;1.88;;
62654;SDS011;48717;55.556;37.816;2023-05-08T08:29:22;4.90;;;1.85;;
62654;SDS011;48717;55.556;37.816;2023-05-08T08:31:49;1.50;;;1.40;;
62654;SDS011;48717;55.556;37.816;2023-05-08T08:34:16;2.55;;;1.40;;
62654;SDS011;48717;55.556;37.816;2023-05-08T08:36:43;5.38;;;1.30;;
62654;SDS011;48717;55.556;37.816;2023-05-08T08:39:10;1.42;;;1.33;;
62654;SDS011;48717;55.556;37.816;2023-05-08T08:41:40;5.40;;;1.60;;
62654;SDS011;48717;55.556;37.816;2023-05-08T08:44:07;3.65;;;1.95;;
62654;SDS011;48717;55.556;37.816;2023-05-08T08:46:35;10.18;;;2.47;;
62654;SDS011;48717;55.556;37.816;2023-05-08T08:49:09;4.25;;;1.70;;
62654;SDS011;48717;55.556;37.816;2023-05-08T08:51:49;4.88;;;1.75;;
62654;SDS011;48717;55.556;37.816;2023-05-08T08:54:26;2.95;;;2.30;;
62654;SDS011;48717;55.556;37.816;2023-05-08T08:56:58;2.10;;;1.75;;
62654;SDS011;48717;55.556;37.816;2023-05-08T08:59:27;2.47;;;1.52;;
62654;SDS011;48717;55.556;37.816;2023-05-08T09:01:56;3.05;;;1.70;;
62654;SDS011;48717;55.556;37.816;2023-05-08T09:04:27;2.95;;;1.48;;
62654;SDS011;48717;55.556;37.816;2023-05-08T09:06:55;3.40;;;1.77;;
62654;SDS011;48717;55.556;37.816;2023-05-08T09:09:23;2.33;;;1.30;;
62654;SDS011;48717;55.556;37.816;2023-05-08T09:11:51;3.15;;;1.10;;
62654;SDS011;48717;55.556;37.816;2023-05-08T09:14:19;3.10;;;1.13;;
62654;SDS011;48717;55.556;37.816;2023-05-08T09:16:46;3.63;;;1.30;;
62654;SDS011;48717;55.556;37.816;2023-05-08T09:19:13;3.35;;;2.33;;
62654;SDS011;48717;55.556;37.816;2023-05-08T09:21:43;9.80;;;2.00;;
62654;SDS011;48717;55.556;37.816;2023-05-08T09:24:11;5.90;;;1.40;;
62654;SDS011;48717;55.556;37.816;2023-05-08T09:26:39;3.00;;;1.20;;
62654;SDS011;48717;55.556;37.816;2023-05-08T09:31:39;4.53;;;1.70;;
62654;SDS011;48717;55.556;37.816;2023-05-08T09:34:09;2.15;;;1.73;;
62654;SDS011;48717;55.556;37.816;2023-05-08T09:36:37;5.95;;;1.98;;
62654;SDS011;48717;55.556;37.816;2023-05-08T09:41:46;5.15;;;1.80;;
62654;SDS011;48717;55.556;37.816;2023-05-08T09:44:23;3.60;;;2.38;;
62654;SDS011;48717;55.556;37.816;2023-05-08T09:46:50;2.28;;;1.40;;
62654;SDS011;48717;55.556;37.816;2023-05-08T09:49:18;3.20;;;1.70;;
62654;SDS011;48717;55.556;37.816;2023-05-08T09:51:51;4.25;;;1.77;;
62654;SDS011;48717;55.556;37.816;2023-05-08T09:54:21;2.67;;;1.50;;
62654;SDS011;48717;55.556;37.816;2023-05-08T09:56:49;4.10;;;2.03;;
62654;SDS011;48717;55.556;37.816;2023-05-08T09:59:26;4.80;;;1.90;;
62654;SDS011;48717;55.556;37.816;2023-05-08T10:01:56;6.03;;;1.70;;
62654;SDS011;48717;55.556;37.816;2023-05-08T10:04:33;3.40;;;1.80;;
62654;SDS011;48717;55.556;37.816;2023-05-08T10:07:01;4.82;;;1.85;;
62654;SDS011;48717;55.556;37.816;2023-05-08T10:09:29;4.22;;;2.38;;
62654;SDS011;48717;55.556;37.816;2023-05-08T10:12:12;5.93;;;2.20;;
62654;SDS011;48717;55.556;37.816;2023-05-08T10:14:39;4.63;;;1.80;;
62654;SDS011;48717;55.556;37.816;2023-05-08T10:17:10;3.38;;;1.60;;
62654;SDS011;48717;55.556;37.816;2023-05-08T10:19:38;3.90;;;2.15;;
62654;SDS011;48717;55.556;37.816;2023-05-08T10:22:10;3.97;;;2.05;;
62654;SDS011;48717;55.556;37.816;2023-05-08T10:24:40;7.05;;;2.63;;
62654;SDS011;48717;55.556;37.816;2023-05-08T10:27:15;3.65;;;2.20;;
62654;SDS011;48717;55.556;37.816;2023-05-08T10:29:52;7.55;;;1.95;;
62654;SDS011;48717;55.556;37.816;2023-05-08T10:32:22;5.30;;;1.85;;
62654;SDS011;48717;55.556;37.816;2023-05-08T10:34:59;3.90;;;1.73;;
62654;SDS011;48717;55.556;37.816;2023-05-08T10:37:30;4.17;;;2.10;;
62654;SDS011;48717;55.556;37.816;2023-05-08T10:40:02;3.65;;;1.75;;
62654;SDS011;48717;55.556;37.816;2023-05-08T10:42:33;2.78;;;1.83;;
62654;SDS011;48717;55.556;37.816;2023-05-08T10:45:03;4.25;;;1.90;;
62654;SDS011;48717;55.556;37.816;2023-05-08T10:50:15;3.05;;;1.60;;
62654;SDS011;48717;55.556;37.816;2023-05-08T10:53:10;1.52;;;1.40;;
62654;SDS011;48717;55.556;37.816;2023-05-08T10:55:49;5.00;;;1.35;;
62654;SDS011;48717;55.556;37.816;2023-05-08T11:03:25;3.42;;;1.25;;
62654;SDS011;48717;55.556;37.816;2023-05-08T11:05:59;2.80;;;1.30;;
62654;SDS011;48717;55.556;37.816;2023-05-08T11:08:28;4.18;;;1.50;;
62654;SDS011;48717;55.556;37.816;2023-05-08T11:16:02;2.33;;;1.40;;
62654;SDS011;48717;55.556;37.816;2023-05-08T11:18:36;4.10;;;1.95;;
62654;SDS011;48717;55.556;37.816;2023-05-08T11:21:19;5.72;;;1.90;;
62654;SDS011;48717;55.556;37.816;2023-05-08T11:23:56;4.93;;;1.45;;
62654;SDS011;48717;55.556;37.816;2023-05-08T11:26:38;2.90;;;1.60;;
62654;SDS011;48717;55.556;37.816;2023-05-08T11:29:17;4.20;;;1.55;;
62654;SDS011;48717;55.556;37.816;2023-05-08T11:31:51;9.23;;;1.63;;
62654;SDS011;48717;55.556;37.816;2023-05-08T11:37:09;2.95;;;1.80;;
62654;SDS011;48717;55.556;37.816;2023-05-08T11:39:37;5.45;;;1.70;;
62654;SDS011;48717;55.556;37.816;2023-05-08T11:45:01;4.10;;;2.10;;
62654;SDS011;48717;55.556;37.816;2023-05-08T11:47:37;6.35;;;2.20;;
62654;SDS011;48717;55.556;37.816;2023-05-08T11:50:07;5.22;;;1.77;;
62654;SDS011;48717;55.556;37.816;2023-05-08T11:52:36;4.65;;;2.05;;
62654;SDS011;48717;55.556;37.816;2023-05-08T11:55:06;8.57;;;1.98;;
62654;SDS011;48717;55.556;37.816;2023-05-08T11:57:35;8.77;;;1.90;;
62654;SDS011;48717;55.556;37.816;2023-05-08T12:00:03;7.35;;;2.17;;
62654;SDS011;48717;55.556;37.816;2023-05-08T12:02:38;8.48;;;1.90;;
62654;SDS011;48717;55.556;37.816;2023-05-08T12:05:07;5.50;;;1.85;;
62654;SDS011;48717;55.556;37.816;2023-05-08T12:07:45;7.43;;;2.05;;
62654;SDS011;48717;55.556;37.816;2023-05-08T12:10:13;4.28;;;2.20;;
62654;SDS011;48717;55.556;37.816;2023-05-08T12:12:42;3.07;;;1.77;;
62654;SDS011;48717;55.556;37.816;2023-05-08T12:15:14;2.58;;;1.70;;
62654;SDS011;48717;55.556;37.816;2023-05-08T12:17:41;3.50;;;1.70;;
62654;SDS011;48717;55.556;37.816;2023-05-08T12:22:48;4.18;;;1.77;;
62654;SDS011;48717;55.556;37.816;2023-05-08T12:25:17;2.35;;;1.73;;
62654;SDS011;48717;55.556;37.816;2023-05-08T12:27:45;2.72;;;1.70;;
62654;SDS011;48717;55.556;37.816;2023-05-08T12:30:13;4.90;;;1.98;;
62654;SDS011;48717;55.556;37.816;2023-05-08T12:32:42;5.47;;;2.00;;
62654;SDS011;48717;55.556;37.816;2023-05-08T12:35:11;5.05;;;1.90;;
62654;SDS011;48717;55.556;37.816;2023-05-08T12:37:39;3.95;;;1.80;;
62654;SDS011;48717;55.556;37.816;2023-05-08T12:40:06;5.53;;;1.60;;
62654;SDS011;48717;55.556;37.816;2023-05-08T12:42:48;4.03;;;1.83;;
62654;SDS011;48717;55.556;37.816;2023-05-08T12:45:19;4.72;;;1.67;;
62654;SDS011;48717;55.556;37.816;2023-05-08T12:47:48;3.35;;;1.52;;
62654;SDS011;48717;55.556;37.816;2023-05-08T12:50:17;3.88;;;1.70;;
62654;SDS011;48717;55.556;37.816;2023-05-08T12:52:47;5.10;;;1.90;;
62654;SDS011;48717;55.556;37.816;2023-05-08T12:55:26;8.35;;;1.88;;
62654;SDS011;48717;55.556;37.816;2023-05-08T13:00:36;4.10;;;1.80;;
62654;SDS011;48717;55.556;37.816;2023-05-08T13:03:11;4.10;;;1.90;;
62654;SDS011;48717;55.556;37.816;2023-05-08T13:05:47;7.43;;;2.13;;
62654;SDS011;48717;55.556;37.816;2023-05-08T13:08:14;3.60;;;1.65;;
62654;SDS011;48717;55.556;37.816;2023-05-08T13:10:45;2.17;;;1.65;;
62654;SDS011;48717;55.556;37.816;2023-05-08T13:13:12;2.20;;;1.75;;
62654;SDS011;48717;55.556;37.816;2023-05-08T13:15:41;5.60;;;1.75;;
62654;SDS011;48717;55.556;37.816;2023-05-08T13:18:09;7.25;;;1.50;;
62654;SDS011;48717;55.556;37.816;2023-05-08T13:20:37;5.57;;;1.60;;
62654;SDS011;48717;55.556;37.816;2023-05-08T13:23:04;4.55;;;1.90;;
62654;SDS011;48717;55.556;37.816;2023-05-08T13:25:32;1.88;;;1.50;;
62654;SDS011;48717;55.556;37.816;2023-05-08T13:27:59;5.32;;;2.08;;
62654;SDS011;48717;55.556;37.816;2023-05-08T13:30:27;3.20;;;1.70;;
62654;SDS011;48717;55.556;37.816;2023-05-08T13:32:54;6.40;;;2.15;;
62654;SDS011;48717;55.556;37.816;2023-05-08T13:35:22;2.97;;;1.70;;
62654;SDS011;48717;55.556;37.816;2023-05-08T13:37:49;2.80;;;1.50;;
62654;SDS011;48717;55.556;37.816;2023-05-08T13:40:16;6.20;;;1.65;;
62654;SDS011;48717;55.556;37.816;2023-05-08T13:42:45;6.47;;;2.20;;
62654;SDS011;48717;55.556;37.816;2023-05-08T13:45:12;7.38;;;2.35;;
62654;SDS011;48717;55.556;37.816;2023-05-08T13:47:44;7.20;;;2.53;;
62654;SDS011;48717;55.556;37.816;2023-05-08T13:50:13;7.95;;;2.42;;
62654;SDS011;48717;55.556;37.816;2023-05-08T13:52:41;12.40;;;2.63;;
62654;SDS011;48717;55.556;37.816;2023-05-08T13:55:12;8.32;;;2.30;;
62654;SDS011;48717;55.556;37.816;2023-05-08T13:57:40;4.78;;;2.50;;
62654;SDS011;48717;55.556;37.816;2023-05-08T14:00:07;4.70;;;2.40;;
62654;SDS011;48717;55.556;37.816;2023-05-08T14:02:35;5.25;;;2.10;;
62654;SDS011;48717;55.556;37.816;2023-05-08T14:05:04;7.75;;;2.80;;
62654;SDS011;48717;55.556;37.816;2023-05-08T14:07:34;4.45;;;1.95;;
62654;SDS011;48717;55.556;37.816;2023-05-08T14:10:01;5.78;;;1.98;;
62654;SDS011;48717;55.556;37.816;2023-05-08T14:12:30;5.95;;;1.80;;
62654;SDS011;48717;55.556;37.816;2023-05-08T14:15:05;4.65;;;1.85;;
62654;SDS011;48717;55.556;37.816;2023-05-08T14:17:34;4.05;;;1.90;;
62654;SDS011;48717;55.556;37.816;2023-05-08T14:20:01;4.68;;;2.28;;
62654;SDS011;48717;55.556;37.816;2023-05-08T14:22:33;4.38;;;1.92;;
62654;SDS011;48717;55.556;37.816;2023-05-08T14:25:01;4.57;;;1.80;;
62654;SDS011;48717;55.556;37.816;2023-05-08T14:27:31;7.10;;;1.80;;
62654;SDS011;48717;55.556;37.816;2023-05-08T14:29:59;9.93;;;4.78;;
62654;SDS011;48717;55.556;37.816;2023-05-08T14:32:33;3.33;;;2.10;;
62654;SDS011;48717;55.556;37.816;2023-05-08T14:35:00;6.80;;;1.92;;
62654;SDS011;48717;55.556;37.816;2023-05-08T14:39:57;4.45;;;1.83;;
62654;SDS011;48717;55.556;37.816;2023-05-08T14:42:25;9.57;;;2.00;;
62654;SDS011;48717;55.556;37.816;2023-05-08T14:44:52;6.43;;;2.30;;
62654;SDS011;48717;55.556;37.816;2023-05-08T14:47:19;9.55;;;3.42;;
62654;SDS011;48717;55.556;37.816;2023-05-08T14:49:46;6.47;;;2.78;;
62654;SDS011;48717;55.556;37.816;2023-05-08T14:52:13;14.98;;;9.18;;
62654;SDS011;48717;55.556;37.816;2023-05-08T14:54:40;8.98;;;2.97;;
62654;SDS011;48717;55.556;37.816;2023-05-08T14:57:07;4.57;;;2.10;;
62654;SDS011;48717;55.556;37.816;2023-05-08T14:59:35;5.25;;;2.58;;
62654;SDS011;48717;55.556;37.816;2023-05-08T15:02:03;6.55;;;2.50;;
62654;SDS011;48717;55.556;37.816;2023-05-08T15:04:30;4.55;;;2.30;;
62654;SDS011;48717;55.556;37.816;2023-05-08T15:06:57;4.85;;;2.22;;
62654;SDS011;48717;55.556;37.816;2023-05-08T15:09:24;12.00;;;2.60;;
62654;SDS011;48717;55.556;37.816;2023-05-08T15:11:51;3.75;;;2.40;;
62654;SDS011;48717;55.556;37.816;2023-05-08T15:14:18;3.95;;;2.72;;
62654;SDS011;48717;55.556;37.816;2023-05-08T15:16:45;4.47;;;2.55;;
62654;SDS011;48717;55.556;37.816;2023-05-08T15:19:13;8.40;;;2.90;;
62654;SDS011;48717;55.556;37.816;2023-05-08T15:21:40;5.03;;;2.60;;
62654;SDS011;48717;55.556;37.816;2023-05-08T15:24:07;7.35;;;4.13;;
62654;SDS011;48717;55.556;37.816;2023-05-08T15:26:34;10.07;;;3.78;;
62654;SDS011;48717;55.556;37.816;2023-05-08T15:29:02;5.82;;;3.63;;
62654;SDS011;48717;55.556;37.816;2023-05-08T15:31:29;3.53;;;1.85;;
62654;SDS011;48717;55.556;37.816;2023-05-08T15:33:56;9.32;;;2.92;;
62654;SDS011;48717;55.556;37.816;2023-05-08T15:36:23;7.75;;;3.22;;
62654;SDS011;48717;55.556;37.816;2023-05-08T15:38:52;14.65;;;3.60;;
62654;SDS011;48717;55.556;37.816;2023-05-08T15:41:19;7.00;;;3.13;;
62654;SDS011;48717;55.556;37.816;2023-05-08T15:43:47;6.63;;;3.42;;
62654;SDS011;48717;55.556;37.816;2023-05-08T15:46:14;5.25;;;3.10;;
62654;SDS011;48717;55.556;37.816;2023-05-08T15:48:41;10.45;;;3.50;;
62654;SDS011;48717;55.556;37.816;2023-05-08T15:51:09;11.20;;;3.67;;